sensor_id;sensor_type;location;lat;lon;timestamp;P1;durP1;ratioP1;P2;durP2;ratioP2
1567;SDS011;777;47.156;8.326;2023-02-28T00:00:11;9.38;;;8.07;;
1567;SDS011;777;47.156;8.326;2023-02-28T00:02:40;10.27;;;8.10;;
1567;SDS011;777;47.156;8.326;2023-02-28T00:05:08;10.48;;;8.00;;
1567;SDS011;777;47.156;8.326;2023-02-28T00:07:36;9.20;;;7.97;;
1567;SDS011;777;47.156;8.326;2023-02-28T00:10:04;9.52;;;8.05;;
1567;SDS011;777;47.156;8.326;2023-02-28T00:12:32;10.05;;;7.75;;
1567;SDS011;777;47.156;8.326;2023-02-28T00:15:01;10.55;;;7.65;;
1567;SDS011;777;47.156;8.326;2023-02-28T00:17:28;9.23;;;7.60;;
1567;SDS011;777;47.156;8.326;2023-02-28T00:19:55;9.63;;;7.82;;
1567;SDS011;777;47.156;8.326;2023-02-28T00:22:26;11.30;;;7.43;;
1567;SDS011;777;47.156;8.326;2023-02-28T00:24:54;9.63;;;8.48;;
1567;SDS011;777;47.156;8.326;2023-02-28T00:27:21;11.02;;;8.60;;
1567;SDS011;777;47.156;8.326;2023-02-28T00:29:48;9.32;;;7.32;;
1567;SDS011;777;47.156;8.326;2023-02-28T00:32:16;9.70;;;8.43;;
1567;SDS011;777;47.156;8.326;2023-02-28T00:34:44;9.88;;;7.57;;
1567;SDS011;777;47.156;8.326;2023-02-28T00:37:11;9.00;;;8.07;;
1567;SDS011;777;47.156;8.326;2023-02-28T00:39:38;9.23;;;8.30;;
1567;SDS011;777;47.156;8.326;2023-02-28T00:42:06;10.10;;;8.00;;
1567;SDS011;777;47.156;8.326;2023-02-28T00:44:33;11.68;;;8.35;;
1567;SDS011;777;47.156;8.326;2023-02-28T00:47:01;12.93;;;8.60;;
1567;SDS011;777;47.156;8.326;2023-02-28T00:49:29;10.52;;;8.55;;
1567;SDS011;777;47.156;8.326;2023-02-28T00:51:56;10.05;;;8.30;;
1567;SDS011;777;47.156;8.326;2023-02-28T00:54:25;8.80;;;7.90;;
1567;SDS011;777;47.156;8.326;2023-02-28T00:56:52;11.48;;;8.25;;
1567;SDS011;777;47.156;8.326;2023-02-28T00:59:19;10.35;;;8.73;;
1567;SDS011;777;47.156;8.326;2023-02-28T01:01:46;10.60;;;8.52;;
1567;SDS011;777;47.156;8.326;2023-02-28T01:04:14;9.85;;;8.45;;
1567;SDS011;777;47.156;8.326;2023-02-28T01:06:42;10.95;;;9.32;;
1567;SDS011;777;47.156;8.326;2023-02-28T01:09:10;10.13;;;8.48;;
1567;SDS011;777;47.156;8.326;2023-02-28T01:11:37;10.60;;;9.50;;
1567;SDS011;777;47.156;8.326;2023-02-28T01:14:05;10.70;;;8.02;;
1567;SDS011;777;47.156;8.326;2023-02-28T01:16:32;10.85;;;8.93;;
1567;SDS011;777;47.156;8.326;2023-02-28T01:19:01;11.13;;;8.90;;
1567;SDS011;777;47.156;8.326;2023-02-28T01:21:28;9.45;;;8.45;;
1567;SDS011;777;47.156;8.326;2023-02-28T01:23:57;11.07;;;9.18;;
1567;SDS011;777;47.156;8.326;2023-02-28T01:26:24;11.70;;;9.40;;
1567;SDS011;777;47.156;8.326;2023-02-28T01:28:52;9.82;;;8.80;;
1567;SDS011;777;47.156;8.326;2023-02-28T01:31:20;12.48;;;9.30;;
1567;SDS011;777;47.156;8.326;2023-02-28T01:33:48;9.93;;;8.90;;
1567;SDS011;777;47.156;8.326;2023-02-28T01:36:16;10.98;;;9.18;;
1567;SDS011;777;47.156;8.326;2023-02-28T01:38:45;11.23;;;10.07;;
1567;SDS011;777;47.156;8.326;2023-02-28T01:41:16;10.32;;;9.18;;
1567;SDS011;777;47.156;8.326;2023-02-28T01:43:57;11.05;;;9.32;;
1567;SDS011;777;47.156;8.326;2023-02-28T01:46:28;10.70;;;9.45;;
1567;SDS011;777;47.156;8.326;2023-02-28T01:48:57;10.48;;;9.15;;
1567;SDS011;777;47.156;8.326;2023-02-28T01:51:28;10.73;;;9.70;;
1567;SDS011;777;47.156;8.326;2023-02-28T01:54:00;9.50;;;8.40;;
1567;SDS011;777;47.156;8.326;2023-02-28T01:56:32;10.30;;;9.20;;
1567;SDS011;777;47.156;8.326;2023-02-28T01:59:03;10.60;;;9.32;;
1567;SDS011;777;47.156;8.326;2023-02-28T02:01:31;10.90;;;9.07;;
1567;SDS011;777;47.156;8.326;2023-02-28T02:04:01;12.55;;;9.75;;
1567;SDS011;777;47.156;8.326;2023-02-28T02:06:30;10.77;;;9.35;;
1567;SDS011;777;47.156;8.326;2023-02-28T02:09:02;10.75;;;9.55;;
1567;SDS011;777;47.156;8.326;2023-02-28T02:11:29;10.80;;;9.52;;
1567;SDS011;777;47.156;8.326;2023-02-28T02:14:13;10.05;;;9.05;;
1567;SDS011;777;47.156;8.326;2023-02-28T02:17:04;11.75;;;9.30;;
1567;SDS011;777;47.156;8.326;2023-02-28T02:22:55;10.85;;;9.75;;
1567;SDS011;777;47.156;8.326;2023-02-28T02:25:49;13.70;;;10.10;;
1567;SDS011;777;47.156;8.326;2023-02-28T02:28:35;10.65;;;9.55;;
1567;SDS011;777;47.156;8.326;2023-02-28T02:31:31;10.73;;;9.50;;
1567;SDS011;777;47.156;8.326;2023-02-28T02:34:30;9.98;;;8.65;;
1567;SDS011;777;47.156;8.326;2023-02-28T02:37:11;11.90;;;9.85;;
1567;SDS011;777;47.156;8.326;2023-02-28T02:42:16;11.90;;;10.02;;
1567;SDS011;777;47.156;8.326;2023-02-28T02:44:50;10.57;;;9.40;;
1567;SDS011;777;47.156;8.326;2023-02-28T02:47:25;11.90;;;9.80;;
1567;SDS011;777;47.156;8.326;2023-02-28T02:49:57;11.27;;;9.68;;
1567;SDS011;777;47.156;8.326;2023-02-28T02:52:30;10.60;;;9.38;;
1567;SDS011;777;47.156;8.326;2023-02-28T02:55:05;11.88;;;10.05;;
1567;SDS011;777;47.156;8.326;2023-02-28T02:57:37;13.23;;;10.00;;
1567;SDS011;777;47.156;8.326;2023-02-28T03:00:10;12.00;;;10.07;;
1567;SDS011;777;47.156;8.326;2023-02-28T03:02:38;11.20;;;9.95;;
1567;SDS011;777;47.156;8.326;2023-02-28T03:05:14;11.00;;;9.90;;
1567;SDS011;777;47.156;8.326;2023-02-28T03:07:45;14.52;;;10.25;;
1567;SDS011;777;47.156;8.326;2023-02-28T03:13:33;12.40;;;10.60;;
1567;SDS011;777;47.156;8.326;2023-02-28T03:16:28;13.20;;;10.45;;
1567;SDS011;777;47.156;8.326;2023-02-28T03:19:03;13.05;;;10.43;;
1567;SDS011;777;47.156;8.326;2023-02-28T03:21:53;11.77;;;9.90;;
1567;SDS011;777;47.156;8.326;2023-02-28T03:24:30;12.25;;;10.60;;
1567;SDS011;777;47.156;8.326;2023-02-28T03:27:03;12.63;;;11.27;;
1567;SDS011;777;47.156;8.326;2023-02-28T03:29:34;11.60;;;10.40;;
1567;SDS011;777;47.156;8.326;2023-02-28T03:32:08;13.30;;;10.70;;
1567;SDS011;777;47.156;8.326;2023-02-28T03:34:43;12.30;;;10.55;;
1567;SDS011;777;47.156;8.326;2023-02-28T03:37:19;11.57;;;10.35;;
1567;SDS011;777;47.156;8.326;2023-02-28T03:39:49;11.98;;;10.35;;
1567;SDS011;777;47.156;8.326;2023-02-28T03:42:22;11.15;;;9.95;;
1567;SDS011;777;47.156;8.326;2023-02-28T03:44:53;12.25;;;10.30;;
1567;SDS011;777;47.156;8.326;2023-02-28T03:47:24;13.63;;;10.57;;
1567;SDS011;777;47.156;8.326;2023-02-28T03:49:54;11.82;;;10.63;;
1567;SDS011;777;47.156;8.326;2023-02-28T03:52:27;11.63;;;10.38;;
1567;SDS011;777;47.156;8.326;2023-02-28T03:54:59;12.00;;;10.80;;
1567;SDS011;777;47.156;8.326;2023-02-28T03:57:33;12.30;;;10.88;;
1567;SDS011;777;47.156;8.326;2023-02-28T04:00:06;11.68;;;10.48;;
1567;SDS011;777;47.156;8.326;2023-02-28T04:02:40;12.00;;;10.80;;
1567;SDS011;777;47.156;8.326;2023-02-28T04:05:08;13.05;;;11.15;;
1567;SDS011;777;47.156;8.326;2023-02-28T04:07:36;11.77;;;10.50;;
1567;SDS011;777;47.156;8.326;2023-02-28T04:10:04;14.00;;;10.63;;
1567;SDS011;777;47.156;8.326;2023-02-28T04:12:31;11.90;;;10.68;;
1567;SDS011;777;47.156;8.326;2023-02-28T04:14:58;12.73;;;11.43;;
1567;SDS011;777;47.156;8.326;2023-02-28T04:17:25;13.38;;;10.95;;
1567;SDS011;777;47.156;8.326;2023-02-28T04:19:52;11.80;;;10.43;;
1567;SDS011;777;47.156;8.326;2023-02-28T04:22:21;11.85;;;10.65;;
1567;SDS011;777;47.156;8.326;2023-02-28T04:24:52;12.35;;;11.15;;
1567;SDS011;777;47.156;8.326;2023-02-28T04:27:20;12.88;;;11.38;;
1567;SDS011;777;47.156;8.326;2023-02-28T04:29:47;12.43;;;11.13;;
1567;SDS011;777;47.156;8.326;2023-02-28T04:32:14;13.32;;;11.55;;
1567;SDS011;777;47.156;8.326;2023-02-28T04:34:41;13.68;;;11.05;;
1567;SDS011;777;47.156;8.326;2023-02-28T04:37:08;12.38;;;10.95;;
1567;SDS011;777;47.156;8.326;2023-02-28T04:39:35;13.02;;;10.63;;
1567;SDS011;777;47.156;8.326;2023-02-28T04:42:04;12.18;;;10.93;;
1567;SDS011;777;47.156;8.326;2023-02-28T04:44:31;12.07;;;10.88;;
1567;SDS011;777;47.156;8.326;2023-02-28T04:46:58;12.77;;;11.00;;
1567;SDS011;777;47.156;8.326;2023-02-28T04:49:25;11.93;;;10.68;;
1567;SDS011;777;47.156;8.326;2023-02-28T04:51:53;13.40;;;10.73;;
1567;SDS011;777;47.156;8.326;2023-02-28T04:54:20;12.07;;;10.52;;
1567;SDS011;777;47.156;8.326;2023-02-28T04:56:47;13.27;;;11.98;;
1567;SDS011;777;47.156;8.326;2023-02-28T04:59:16;12.07;;;10.77;;
1567;SDS011;777;47.156;8.326;2023-02-28T05:01:45;14.07;;;11.38;;
1567;SDS011;777;47.156;8.326;2023-02-28T05:04:14;15.15;;;10.18;;
1567;SDS011;777;47.156;8.326;2023-02-28T05:06:41;14.70;;;11.07;;
1567;SDS011;777;47.156;8.326;2023-02-28T05:09:08;11.88;;;10.65;;
1567;SDS011;777;47.156;8.326;2023-02-28T05:11:36;14.88;;;11.60;;
1567;SDS011;777;47.156;8.326;2023-02-28T05:14:05;13.13;;;11.35;;
1567;SDS011;777;47.156;8.326;2023-02-28T05:16:36;13.13;;;10.98;;
1567;SDS011;777;47.156;8.326;2023-02-28T05:19:04;12.20;;;10.90;;
1567;SDS011;777;47.156;8.326;2023-02-28T05:21:31;11.82;;;10.73;;
1567;SDS011;777;47.156;8.326;2023-02-28T05:24:01;12.32;;;11.02;;
1567;SDS011;777;47.156;8.326;2023-02-28T05:26:30;12.32;;;10.98;;
1567;SDS011;777;47.156;8.326;2023-02-28T05:29:00;12.40;;;10.60;;
1567;SDS011;777;47.156;8.326;2023-02-28T05:31:27;12.07;;;10.68;;
1567;SDS011;777;47.156;8.326;2023-02-28T05:33:55;12.05;;;10.60;;
1567;SDS011;777;47.156;8.326;2023-02-28T05:36:23;12.55;;;10.95;;
1567;SDS011;777;47.156;8.326;2023-02-28T05:38:50;12.20;;;10.80;;
1567;SDS011;777;47.156;8.326;2023-02-28T05:41:18;13.00;;;10.80;;
1567;SDS011;777;47.156;8.326;2023-02-28T05:43:46;13.38;;;10.98;;
1567;SDS011;777;47.156;8.326;2023-02-28T05:46:14;12.90;;;11.55;;
1567;SDS011;777;47.156;8.326;2023-02-28T05:48:41;12.18;;;10.90;;
1567;SDS011;777;47.156;8.326;2023-02-28T05:51:13;12.82;;;11.23;;
1567;SDS011;777;47.156;8.326;2023-02-28T05:53:40;12.50;;;11.25;;
1567;SDS011;777;47.156;8.326;2023-02-28T05:56:07;13.98;;;11.18;;
1567;SDS011;777;47.156;8.326;2023-02-28T05:58:34;13.98;;;11.15;;
1567;SDS011;777;47.156;8.326;2023-02-28T06:03:47;12.35;;;11.05;;
1567;SDS011;777;47.156;8.326;2023-02-28T06:06:16;12.73;;;11.43;;
1567;SDS011;777;47.156;8.326;2023-02-28T06:08:43;14.45;;;10.88;;
1567;SDS011;777;47.156;8.326;2023-02-28T06:11:10;12.10;;;10.90;;
1567;SDS011;777;47.156;8.326;2023-02-28T06:13:38;13.43;;;12.00;;
1567;SDS011;777;47.156;8.326;2023-02-28T06:16:05;12.35;;;11.13;;
1567;SDS011;777;47.156;8.326;2023-02-28T06:18:32;12.40;;;11.13;;
1567;SDS011;777;47.156;8.326;2023-02-28T06:20:59;11.85;;;10.43;;
1567;SDS011;777;47.156;8.326;2023-02-28T06:23:28;12.63;;;11.13;;
1567;SDS011;777;47.156;8.326;2023-02-28T06:25:55;13.25;;;11.05;;
1567;SDS011;777;47.156;8.326;2023-02-28T06:28:23;12.48;;;11.15;;
1567;SDS011;777;47.156;8.326;2023-02-28T06:30:51;12.88;;;10.75;;
1567;SDS011;777;47.156;8.326;2023-02-28T06:33:18;13.32;;;11.50;;
1567;SDS011;777;47.156;8.326;2023-02-28T06:35:46;12.25;;;11.00;;
1567;SDS011;777;47.156;8.326;2023-02-28T06:38:13;11.77;;;10.68;;
1567;SDS011;777;47.156;8.326;2023-02-28T06:40:41;12.30;;;11.00;;
1567;SDS011;777;47.156;8.326;2023-02-28T06:43:09;12.43;;;11.13;;
1567;SDS011;777;47.156;8.326;2023-02-28T06:45:43;13.85;;;10.65;;
1567;SDS011;777;47.156;8.326;2023-02-28T06:48:10;13.55;;;10.90;;
1567;SDS011;777;47.156;8.326;2023-02-28T06:50:37;11.95;;;10.65;;
1567;SDS011;777;47.156;8.326;2023-02-28T06:53:04;12.25;;;10.80;;
1567;SDS011;777;47.156;8.326;2023-02-28T06:55:31;12.07;;;10.60;;
1567;SDS011;777;47.156;8.326;2023-02-28T06:58:00;14.15;;;11.88;;
1567;SDS011;777;47.156;8.326;2023-02-28T07:00:26;12.75;;;11.45;;
1567;SDS011;777;47.156;8.326;2023-02-28T07:02:53;13.13;;;10.95;;
1567;SDS011;777;47.156;8.326;2023-02-28T07:05:20;11.90;;;10.57;;
1567;SDS011;777;47.156;8.326;2023-02-28T07:07:48;14.40;;;11.05;;
1567;SDS011;777;47.156;8.326;2023-02-28T07:10:14;13.35;;;11.35;;
1567;SDS011;777;47.156;8.326;2023-02-28T07:12:42;11.82;;;10.63;;
1567;SDS011;777;47.156;8.326;2023-02-28T07:15:11;12.05;;;10.75;;
1567;SDS011;777;47.156;8.326;2023-02-28T07:17:38;12.07;;;10.65;;
1567;SDS011;777;47.156;8.326;2023-02-28T07:20:05;14.05;;;10.50;;
1567;SDS011;777;47.156;8.326;2023-02-28T07:22:33;14.95;;;11.85;;
1567;SDS011;777;47.156;8.326;2023-02-28T07:25:00;13.73;;;11.52;;
1567;SDS011;777;47.156;8.326;2023-02-28T07:27:27;12.38;;;10.75;;
1567;SDS011;777;47.156;8.326;2023-02-28T07:29:54;12.35;;;10.40;;
1567;SDS011;777;47.156;8.326;2023-02-28T07:32:23;13.23;;;10.60;;
1567;SDS011;777;47.156;8.326;2023-02-28T07:34:50;12.90;;;11.40;;
1567;SDS011;777;47.156;8.326;2023-02-28T07:37:17;13.98;;;11.60;;
1567;SDS011;777;47.156;8.326;2023-02-28T07:39:44;14.98;;;11.50;;
1567;SDS011;777;47.156;8.326;2023-02-28T07:42:11;12.73;;;11.40;;
1567;SDS011;777;47.156;8.326;2023-02-28T07:44:38;12.48;;;11.18;;
1567;SDS011;777;47.156;8.326;2023-02-28T07:47:06;15.00;;;11.70;;
1567;SDS011;777;47.156;8.326;2023-02-28T07:49:35;13.60;;;11.00;;
1567;SDS011;777;47.156;8.326;2023-02-28T07:52:04;15.63;;;11.27;;
1567;SDS011;777;47.156;8.326;2023-02-28T07:54:32;12.23;;;10.70;;
1567;SDS011;777;47.156;8.326;2023-02-28T07:56:59;15.45;;;11.60;;
1567;SDS011;777;47.156;8.326;2023-02-28T07:59:26;12.88;;;11.35;;
1567;SDS011;777;47.156;8.326;2023-02-28T08:01:53;12.25;;;10.95;;
1567;SDS011;777;47.156;8.326;2023-02-28T08:04:19;12.65;;;10.82;;
1567;SDS011;777;47.156;8.326;2023-02-28T08:06:48;13.63;;;11.18;;
1567;SDS011;777;47.156;8.326;2023-02-28T08:09:17;12.88;;;11.30;;
1567;SDS011;777;47.156;8.326;2023-02-28T08:11:44;12.35;;;10.73;;
1567;SDS011;777;47.156;8.326;2023-02-28T08:14:11;13.55;;;10.90;;
1567;SDS011;777;47.156;8.326;2023-02-28T08:16:38;14.25;;;11.50;;
1567;SDS011;777;47.156;8.326;2023-02-28T08:19:05;15.95;;;11.63;;
1567;SDS011;777;47.156;8.326;2023-02-28T08:21:32;14.43;;;11.82;;
1567;SDS011;777;47.156;8.326;2023-02-28T08:24:01;13.95;;;11.75;;
1567;SDS011;777;47.156;8.326;2023-02-28T08:26:27;12.43;;;11.05;;
1567;SDS011;777;47.156;8.326;2023-02-28T08:28:55;11.57;;;10.38;;
1567;SDS011;777;47.156;8.326;2023-02-28T08:31:22;12.23;;;10.90;;
1567;SDS011;777;47.156;8.326;2023-02-28T08:33:49;15.15;;;11.13;;
1567;SDS011;777;47.156;8.326;2023-02-28T08:36:18;11.80;;;10.52;;
1567;SDS011;777;47.156;8.326;2023-02-28T08:38:45;11.85;;;10.52;;
1567;SDS011;777;47.156;8.326;2023-02-28T08:41:14;14.60;;;10.52;;
1567;SDS011;777;47.156;8.326;2023-02-28T08:43:41;13.10;;;11.13;;
1567;SDS011;777;47.156;8.326;2023-02-28T08:46:08;12.70;;;10.95;;
1567;SDS011;777;47.156;8.326;2023-02-28T08:48:38;13.50;;;11.25;;
1567;SDS011;777;47.156;8.326;2023-02-28T08:51:06;16.38;;;11.05;;
1567;SDS011;777;47.156;8.326;2023-02-28T08:53:35;12.98;;;10.70;;
1567;SDS011;777;47.156;8.326;2023-02-28T08:56:03;12.32;;;10.85;;
1567;SDS011;777;47.156;8.326;2023-02-28T08:58:33;11.05;;;9.85;;
1567;SDS011;777;47.156;8.326;2023-02-28T09:01:07;12.02;;;10.73;;
1567;SDS011;777;47.156;8.326;2023-02-28T09:03:35;13.00;;;10.55;;
1567;SDS011;777;47.156;8.326;2023-02-28T09:06:02;12.55;;;10.32;;
1567;SDS011;777;47.156;8.326;2023-02-28T09:08:31;12.55;;;10.68;;
1567;SDS011;777;47.156;8.326;2023-02-28T09:10:57;12.75;;;10.45;;
1567;SDS011;777;47.156;8.326;2023-02-28T09:13:25;11.25;;;10.05;;
1567;SDS011;777;47.156;8.326;2023-02-28T09:15:54;13.32;;;10.65;;
1567;SDS011;777;47.156;8.326;2023-02-28T09:18:24;14.85;;;11.00;;
1567;SDS011;777;47.156;8.326;2023-02-28T09:20:52;14.00;;;10.65;;
1567;SDS011;777;47.156;8.326;2023-02-28T09:23:19;14.80;;;12.05;;
1567;SDS011;777;47.156;8.326;2023-02-28T09:25:47;14.02;;;11.38;;
1567;SDS011;777;47.156;8.326;2023-02-28T09:28:15;15.23;;;11.60;;
1567;SDS011;777;47.156;8.326;2023-02-28T09:30:43;13.68;;;11.60;;
1567;SDS011;777;47.156;8.326;2023-02-28T09:33:13;12.73;;;11.43;;
1567;SDS011;777;47.156;8.326;2023-02-28T09:35:41;14.85;;;11.52;;
1567;SDS011;777;47.156;8.326;2023-02-28T09:38:08;12.27;;;10.98;;
1567;SDS011;777;47.156;8.326;2023-02-28T09:40:36;13.55;;;10.60;;
1567;SDS011;777;47.156;8.326;2023-02-28T09:43:05;13.30;;;11.35;;
1567;SDS011;777;47.156;8.326;2023-02-28T09:45:39;12.63;;;10.23;;
1567;SDS011;777;47.156;8.326;2023-02-28T09:48:10;13.00;;;10.32;;
1567;SDS011;777;47.156;8.326;2023-02-28T09:50:42;12.13;;;10.38;;
1567;SDS011;777;47.156;8.326;2023-02-28T09:53:13;12.70;;;10.35;;
1567;SDS011;777;47.156;8.326;2023-02-28T09:58:15;11.25;;;9.70;;
1567;SDS011;777;47.156;8.326;2023-02-28T10:00:55;10.90;;;9.80;;
1567;SDS011;777;47.156;8.326;2023-02-28T10:03:27;11.65;;;9.60;;
1567;SDS011;777;47.156;8.326;2023-02-28T10:05:59;12.15;;;10.68;;
1567;SDS011;777;47.156;8.326;2023-02-28T10:08:34;12.05;;;10.75;;
1567;SDS011;777;47.156;8.326;2023-02-28T10:11:07;13.93;;;10.85;;
1567;SDS011;777;47.156;8.326;2023-02-28T10:13:39;13.82;;;11.07;;
1567;SDS011;777;47.156;8.326;2023-02-28T10:16:16;18.30;;;15.90;;
1567;SDS011;777;47.156;8.326;2023-02-28T10:18:50;63.33;;;43.50;;
1567;SDS011;777;47.156;8.326;2023-02-28T10:21:23;47.00;;;42.03;;
1567;SDS011;777;47.156;8.326;2023-02-28T10:23:57;163.45;;;108.07;;
1567;SDS011;777;47.156;8.326;2023-02-28T10:26:29;68.53;;;50.40;;
1567;SDS011;777;47.156;8.326;2023-02-28T10:28:58;57.03;;;45.90;;
1567;SDS011;777;47.156;8.326;2023-02-28T10:31:26;13.20;;;11.27;;
1567;SDS011;777;47.156;8.326;2023-02-28T10:33:54;11.30;;;9.80;;
1567;SDS011;777;47.156;8.326;2023-02-28T10:36:22;12.27;;;10.13;;
1567;SDS011;777;47.156;8.326;2023-02-28T10:38:49;13.75;;;9.98;;
1567;SDS011;777;47.156;8.326;2023-02-28T10:41:18;11.80;;;10.35;;
1567;SDS011;777;47.156;8.326;2023-02-28T10:46:45;12.20;;;10.90;;
1567;SDS011;777;47.156;8.326;2023-02-28T10:49:14;11.43;;;10.20;;
1567;SDS011;777;47.156;8.326;2023-02-28T10:51:46;11.93;;;10.63;;
1567;SDS011;777;47.156;8.326;2023-02-28T10:54:15;12.90;;;10.93;;
1567;SDS011;777;47.156;8.326;2023-02-28T10:56:43;13.73;;;9.93;;
1567;SDS011;777;47.156;8.326;2023-02-28T10:59:26;12.05;;;10.32;;
1567;SDS011;777;47.156;8.326;2023-02-28T11:01:55;13.88;;;10.73;;
1567;SDS011;777;47.156;8.326;2023-02-28T11:04:34;12.82;;;10.55;;
1567;SDS011;777;47.156;8.326;2023-02-28T11:07:05;14.48;;;11.43;;
1567;SDS011;777;47.156;8.326;2023-02-28T11:09:44;13.05;;;11.38;;
1567;SDS011;777;47.156;8.326;2023-02-28T11:12:19;12.75;;;10.93;;
1567;SDS011;777;47.156;8.326;2023-02-28T11:14:49;13.45;;;10.98;;
1567;SDS011;777;47.156;8.326;2023-02-28T11:17:19;13.82;;;11.25;;
1567;SDS011;777;47.156;8.326;2023-02-28T11:19:50;15.50;;;11.55;;
1567;SDS011;777;47.156;8.326;2023-02-28T11:22:20;12.45;;;10.43;;
1567;SDS011;777;47.156;8.326;2023-02-28T11:24:54;16.33;;;11.73;;
1567;SDS011;777;47.156;8.326;2023-02-28T11:27:25;12.90;;;10.80;;
1567;SDS011;777;47.156;8.326;2023-02-28T11:30:15;13.98;;;11.88;;
1567;SDS011;777;47.156;8.326;2023-02-28T11:32:50;13.38;;;11.48;;
1567;SDS011;777;47.156;8.326;2023-02-28T11:35:21;12.50;;;10.50;;
1567;SDS011;777;47.156;8.326;2023-02-28T11:37:52;14.57;;;11.02;;
1567;SDS011;777;47.156;8.326;2023-02-28T11:40:21;13.18;;;10.93;;
1567;SDS011;777;47.156;8.326;2023-02-28T11:42:57;12.88;;;10.70;;
1567;SDS011;777;47.156;8.326;2023-02-28T11:45:36;13.93;;;11.55;;
1567;SDS011;777;47.156;8.326;2023-02-28T11:48:14;12.68;;;11.30;;
1567;SDS011;777;47.156;8.326;2023-02-28T11:50:52;12.70;;;10.93;;
1567;SDS011;777;47.156;8.326;2023-02-28T11:53:35;13.93;;;10.68;;
1567;SDS011;777;47.156;8.326;2023-02-28T11:56:14;12.75;;;10.80;;
1567;SDS011;777;47.156;8.326;2023-02-28T11:58:51;13.02;;;11.25;;
1567;SDS011;777;47.156;8.326;2023-02-28T12:01:29;13.40;;;11.75;;
1567;SDS011;777;47.156;8.326;2023-02-28T12:04:11;13.20;;;11.80;;
1567;SDS011;777;47.156;8.326;2023-02-28T12:06:52;15.73;;;11.48;;
1567;SDS011;777;47.156;8.326;2023-02-28T12:09:31;13.77;;;11.20;;
1567;SDS011;777;47.156;8.326;2023-02-28T12:12:08;14.25;;;11.75;;
1567;SDS011;777;47.156;8.326;2023-02-28T12:14:50;14.43;;;11.88;;
1567;SDS011;777;47.156;8.326;2023-02-28T12:17:39;12.73;;;11.02;;
1567;SDS011;777;47.156;8.326;2023-02-28T12:20:17;12.98;;;11.57;;
1567;SDS011;777;47.156;8.326;2023-02-28T12:22:56;15.60;;;11.32;;
1567;SDS011;777;47.156;8.326;2023-02-28T12:25:50;13.35;;;10.98;;
1567;SDS011;777;47.156;8.326;2023-02-28T12:28:28;14.70;;;10.85;;
1567;SDS011;777;47.156;8.326;2023-02-28T12:30:59;14.10;;;11.77;;
1567;SDS011;777;47.156;8.326;2023-02-28T12:33:31;13.57;;;11.50;;
1567;SDS011;777;47.156;8.326;2023-02-28T12:36:03;12.68;;;11.27;;
1567;SDS011;777;47.156;8.326;2023-02-28T12:38:38;14.00;;;11.23;;
1567;SDS011;777;47.156;8.326;2023-02-28T12:41:10;13.35;;;11.85;;
1567;SDS011;777;47.156;8.326;2023-02-28T12:43:43;16.55;;;12.05;;
1567;SDS011;777;47.156;8.326;2023-02-28T12:46:14;13.13;;;11.50;;
1567;SDS011;777;47.156;8.326;2023-02-28T12:48:46;14.57;;;11.03;;
1567;SDS011;777;47.156;8.326;2023-02-28T12:51:17;12.38;;;10.98;;
1567;SDS011;777;47.156;8.326;2023-02-28T12:53:52;14.20;;;11.30;;
1567;SDS011;777;47.156;8.326;2023-02-28T12:56:30;13.88;;;11.63;;
1567;SDS011;777;47.156;8.326;2023-02-28T12:59:10;14.10;;;11.38;;
1567;SDS011;777;47.156;8.326;2023-02-28T13:04:31;12.70;;;11.40;;
1567;SDS011;777;47.156;8.326;2023-02-28T13:07:30;16.17;;;11.60;;
1567;SDS011;777;47.156;8.326;2023-02-28T13:10:16;13.95;;;12.07;;
1567;SDS011;777;47.156;8.326;2023-02-28T13:12:48;14.63;;;11.63;;
1567;SDS011;777;47.156;8.326;2023-02-28T13:15:17;12.85;;;11.50;;
1567;SDS011;777;47.156;8.326;2023-02-28T13:17:49;14.30;;;11.60;;
1567;SDS011;777;47.156;8.326;2023-02-28T13:20:18;13.60;;;11.32;;
1567;SDS011;777;47.156;8.326;2023-02-28T13:22:47;12.60;;;10.98;;
1567;SDS011;777;47.156;8.326;2023-02-28T13:31:35;14.23;;;11.73;;
1567;SDS011;777;47.156;8.326;2023-02-28T13:34:42;13.02;;;11.63;;
1567;SDS011;777;47.156;8.326;2023-02-28T13:37:35;14.80;;;12.18;;
1567;SDS011;777;47.156;8.326;2023-02-28T13:40:22;13.77;;;11.82;;
1567;SDS011;777;47.156;8.326;2023-02-28T13:43:02;14.10;;;11.90;;
1567;SDS011;777;47.156;8.326;2023-02-28T13:45:30;13.32;;;11.93;;
1567;SDS011;777;47.156;8.326;2023-02-28T13:48:04;13.75;;;12.20;;
1567;SDS011;777;47.156;8.326;2023-02-28T13:50:42;15.18;;;12.45;;
1567;SDS011;777;47.156;8.326;2023-02-28T13:56:30;14.63;;;11.57;;
1567;SDS011;777;47.156;8.326;2023-02-28T13:59:13;13.02;;;11.70;;
1567;SDS011;777;47.156;8.326;2023-02-28T14:04:44;14.27;;;12.77;;
1567;SDS011;777;47.156;8.326;2023-02-28T14:07:23;16.50;;;12.52;;
1567;SDS011;777;47.156;8.326;2023-02-28T14:09:57;14.27;;;12.80;;
1567;SDS011;777;47.156;8.326;2023-02-28T14:15:40;14.13;;;12.45;;
1567;SDS011;777;47.156;8.326;2023-02-28T14:18:16;15.07;;;12.30;;
1567;SDS011;777;47.156;8.326;2023-02-28T14:20:47;14.73;;;13.15;;
1567;SDS011;777;47.156;8.326;2023-02-28T14:23:21;17.05;;;12.82;;
1567;SDS011;777;47.156;8.326;2023-02-28T14:26:10;14.40;;;12.60;;
1567;SDS011;777;47.156;8.326;2023-02-28T14:28:56;15.95;;;13.20;;
1567;SDS011;777;47.156;8.326;2023-02-28T14:31:40;13.98;;;12.45;;
1567;SDS011;777;47.156;8.326;2023-02-28T14:34:17;15.25;;;13.65;;
1567;SDS011;777;47.156;8.326;2023-02-28T14:36:53;13.90;;;12.20;;
1567;SDS011;777;47.156;8.326;2023-02-28T14:39:26;14.88;;;13.30;;
1567;SDS011;777;47.156;8.326;2023-02-28T14:41:56;14.65;;;12.63;;
1567;SDS011;777;47.156;8.326;2023-02-28T14:44:28;19.70;;;12.80;;
1567;SDS011;777;47.156;8.326;2023-02-28T14:46:56;15.05;;;13.38;;
1567;SDS011;777;47.156;8.326;2023-02-28T14:49:25;15.13;;;13.20;;
1567;SDS011;777;47.156;8.326;2023-02-28T14:58:58;15.35;;;12.77;;
1567;SDS011;777;47.156;8.326;2023-02-28T15:01:26;17.02;;;13.95;;
1567;SDS011;777;47.156;8.326;2023-02-28T15:04:00;15.73;;;13.68;;
1567;SDS011;777;47.156;8.326;2023-02-28T15:06:29;17.27;;;13.55;;
1567;SDS011;777;47.156;8.326;2023-02-28T15:09:14;17.20;;;13.90;;
1567;SDS011;777;47.156;8.326;2023-02-28T15:11:45;16.35;;;13.77;;
1567;SDS011;777;47.156;8.326;2023-02-28T15:14:17;16.70;;;13.68;;
1567;SDS011;777;47.156;8.326;2023-02-28T15:16:46;16.02;;;14.32;;
1567;SDS011;777;47.156;8.326;2023-02-28T15:19:20;15.18;;;13.45;;
1567;SDS011;777;47.156;8.326;2023-02-28T15:21:50;15.82;;;14.23;;
1567;SDS011;777;47.156;8.326;2023-02-28T15:24:22;17.63;;;14.27;;
1567;SDS011;777;47.156;8.326;2023-02-28T15:26:58;16.15;;;14.43;;
1567;SDS011;777;47.156;8.326;2023-02-28T15:29:30;14.60;;;13.00;;
1567;SDS011;777;47.156;8.326;2023-02-28T15:32:04;16.85;;;14.18;;
1567;SDS011;777;47.156;8.326;2023-02-28T15:34:34;17.48;;;13.48;;
1567;SDS011;777;47.156;8.326;2023-02-28T15:37:06;15.77;;;13.20;;
1567;SDS011;777;47.156;8.326;2023-02-28T15:39:48;19.02;;;14.63;;
1567;SDS011;777;47.156;8.326;2023-02-28T15:42:17;18.67;;;14.40;;
1567;SDS011;777;47.156;8.326;2023-02-28T15:44:47;16.60;;;13.48;;
1567;SDS011;777;47.156;8.326;2023-02-28T15:47:21;14.90;;;12.88;;
1567;SDS011;777;47.156;8.326;2023-02-28T15:50:09;16.08;;;14.18;;
1567;SDS011;777;47.156;8.326;2023-02-28T15:52:51;17.42;;;14.63;;
1567;SDS011;777;47.156;8.326;2023-02-28T15:55:18;15.88;;;14.13;;
1567;SDS011;777;47.156;8.326;2023-02-28T15:57:48;15.32;;;13.18;;
1567;SDS011;777;47.156;8.326;2023-02-28T16:00:20;16.42;;;14.23;;
1567;SDS011;777;47.156;8.326;2023-02-28T16:02:49;17.40;;;14.75;;
1567;SDS011;777;47.156;8.326;2023-02-28T16:05:19;18.05;;;15.13;;
1567;SDS011;777;47.156;8.326;2023-02-28T16:07:53;16.38;;;14.50;;
1567;SDS011;777;47.156;8.326;2023-02-28T16:10:20;16.30;;;14.48;;
1567;SDS011;777;47.156;8.326;2023-02-28T16:12:50;17.73;;;14.10;;